Garden Grove, Iowa
Current Conditions -  °F | °C
As of 12:55 PM on Sunday 23 Nov 2014 (Local Time) from KI75 Reporting Station
Overcast Overcast  
Wind Chill: 53°   Ceiling: 400
Heat Index: 53°   Visibility: 10mi
Dew Point: 52°   Wind: 6mph
Humidity: 96%   Direction: 170°S
Pressure: 29.37"   Gusts: NA
Location:  40.83°N, 93.61°W
Report Text: KI75 231855Z AUTO 17005KT 10SM OVC004 12/11 A2937 RMK AO2 P0001 T01190113
Loading
Personal Weather Stations






























Interactive Weather Map New forecast layout! Learn more

10-Day Weather Forecast

Advertisements
Track Severe Weather on mobile